createdAt,value
2019-03-25T00:00:08.083Z,62.12
2019-03-25T00:02:38.100Z,62.65
2019-03-25T00:05:06.172Z,62.61
2019-03-25T00:07:34.034Z,63.03
2019-03-25T00:10:02.930Z,63.41
2019-03-25T00:12:30.693Z,63.28
2019-03-25T00:14:58.764Z,63.44
2019-03-25T00:17:26.733Z,63.46
2019-03-25T00:19:54.701Z,63.59
2019-03-25T00:22:22.668Z,63.69
2019-03-25T00:24:50.639Z,63.80
2019-03-25T00:27:18.605Z,63.95
2019-03-25T00:29:46.166Z,64.29
2019-03-25T00:32:14.032Z,64.48
2019-03-25T00:34:41.896Z,64.79
2019-03-25T00:37:09.763Z,64.76
2019-03-25T00:39:37.934Z,65.59
2019-03-25T00:42:05.704Z,65.18
2019-03-25T00:44:34.184Z,65.37
2019-03-25T00:47:01.942Z,65.43
2019-03-25T00:49:29.712Z,65.61
2019-03-25T00:51:57.573Z,66.00
2019-03-25T00:54:25.950Z,65.96
2019-03-25T00:56:53.817Z,65.95
2019-03-25T00:59:22.812Z,65.92
2019-03-25T01:01:51.290Z,66.16
2019-03-25T01:04:18.961Z,66.58
2019-03-25T01:06:46.801Z,66.22
2019-03-25T01:09:14.580Z,65.78
2019-03-25T01:11:49.073Z,65.45
2019-03-25T01:14:12.057Z,65.40
2019-03-25T01:16:39.817Z,65.05
2019-03-25T01:19:07.691Z,64.72
2019-03-25T01:21:35.344Z,64.50
2019-03-25T01:24:03.331Z,64.77
2019-03-25T01:26:31.180Z,65.19
2019-03-25T01:28:58.837Z,65.00
2019-03-25T01:31:26.609Z,64.73
2019-03-25T01:33:54.371Z,65.60
2019-03-25T01:36:22.237Z,65.37
2019-03-25T01:38:50.101Z,65.96
2019-03-25T01:41:17.969Z,66.21
2019-03-25T01:43:45.736Z,66.04
2019-03-25T01:46:13.598Z,65.38
2019-03-25T01:48:41.361Z,66.16
2019-03-25T01:51:09.332Z,66.41
2019-03-25T01:53:38.288Z,66.67
2019-03-25T01:56:06.087Z,66.64
2019-03-25T01:58:33.851Z,66.81
2019-03-25T02:01:03.155Z,66.60
2019-03-25T02:03:31.223Z,66.70
2019-03-25T02:05:59.907Z,66.40
2019-03-25T02:08:27.667Z,66.45
2019-03-25T02:10:55.434Z,66.84
2019-03-25T02:13:24.120Z,66.76
2019-03-25T02:15:51.879Z,66.58
2019-03-25T02:18:19.647Z,66.84
2019-03-25T02:20:47.411Z,67.01
2019-03-25T02:23:15.284Z,67.18
2019-03-25T02:25:43.140Z,67.52
2019-03-25T02:28:11.005Z,67.91
2019-03-25T02:30:38.874Z,67.60
2019-03-25T02:33:06.642Z,67.59
2019-03-25T02:35:34.626Z,68.38
2019-03-25T02:38:02.370Z,68.34
2019-03-25T02:40:30.138Z,68.84
2019-03-25T02:42:57.902Z,68.69
2019-03-25T02:45:25.659Z,68.35
2019-03-25T02:47:53.440Z,69.18
2019-03-25T02:50:21.297Z,69.16
2019-03-25T02:52:49.568Z,68.44
2019-03-25T02:55:17.432Z,68.84
2019-03-25T02:57:45.197Z,69.08
2019-03-25T03:00:15.314Z,69.68
2019-03-25T03:02:44.004Z,69.58
2019-03-25T03:05:11.471Z,69.58
2019-03-25T03:07:39.326Z,69.76
2019-03-25T03:10:07.083Z,69.74
2019-03-25T03:12:34.954Z,70.24
2019-03-25T03:15:04.869Z,70.73
2019-03-25T03:17:32.221Z,71.08
2019-03-25T03:19:59.985Z,71.70
2019-03-25T03:22:27.751Z,71.73
2019-03-25T03:24:55.613Z,71.54
2019-03-25T03:27:23.483Z,71.60
2019-03-25T03:29:51.247Z,71.79
2019-03-25T03:32:19.014Z,71.90
2019-03-25T03:34:46.932Z,72.13
2019-03-25T03:37:14.744Z,72.02
2019-03-25T03:39:42.500Z,72.10
2019-03-25T03:42:10.476Z,72.40
2019-03-25T03:44:38.339Z,72.75
2019-03-25T03:47:06.306Z,72.77
2019-03-25T03:49:34.284Z,72.62
2019-03-25T03:52:02.248Z,72.92
2019-03-25T03:54:30.828Z,72.49
2019-03-25T03:56:58.695Z,72.17
2019-03-25T03:59:27.688Z,72.70
2019-03-25T04:01:56.066Z,72.97
2019-03-25T04:04:24.030Z,73.15
2019-03-25T04:06:52.126Z,73.07
2019-03-25T04:09:20.072Z,72.92
2019-03-25T04:11:47.937Z,71.89
2019-03-25T04:14:15.908Z,72.13
2019-03-25T04:16:43.777Z,71.76
2019-03-25T04:19:11.738Z,71.66
2019-03-25T04:21:39.707Z,71.49
2019-03-25T04:24:07.674Z,70.73
2019-03-25T04:26:35.652Z,71.01
2019-03-25T04:29:03.639Z,71.27
2019-03-25T04:31:31.583Z,70.71
2019-03-25T04:33:59.550Z,69.66
2019-03-25T04:36:27.626Z,69.76
2019-03-25T04:38:55.592Z,70.30
2019-03-25T04:41:23.562Z,69.88
2019-03-25T04:43:51.426Z,69.40
2019-03-25T04:46:19.398Z,68.75
2019-03-25T04:48:47.385Z,68.37
2019-03-25T04:51:15.332Z,68.03
2019-03-25T04:53:43.917Z,67.24
2019-03-25T04:56:11.985Z,67.52
2019-03-25T04:58:40.058Z,67.76
2019-03-25T05:01:08.432Z,67.22
2019-03-25T05:03:36.813Z,67.05
2019-03-25T05:06:04.881Z,66.60
2019-03-25T05:08:32.857Z,66.45
2019-03-25T05:11:01.138Z,67.05
2019-03-25T05:13:30.424Z,67.09
2019-03-25T05:15:58.401Z,66.02
2019-03-25T05:18:26.373Z,67.22
2019-03-25T05:20:54.334Z,66.62
2019-03-25T05:23:22.504Z,65.86
2019-03-25T05:25:50.478Z,65.12
2019-03-25T05:28:18.543Z,65.12
2019-03-25T05:30:46.619Z,65.86
2019-03-25T05:33:14.593Z,66.60
2019-03-25T05:35:42.658Z,65.12
2019-03-25T05:38:10.730Z,64.36
2019-03-25T05:40:38.493Z,63.80
2019-03-25T05:43:06.577Z,63.02
2019-03-25T05:45:34.531Z,61.92
2019-03-25T05:48:02.600Z,62.08
2019-03-25T05:50:30.978Z,60.27
2019-03-25T05:52:59.462Z,60.27
2019-03-25T05:55:27.533Z,60.78
2019-03-25T05:57:55.813Z,59.42
2019-03-25T06:00:26.034Z,57.81
2019-03-25T06:02:53.595Z,57.52
2019-03-25T06:05:21.656Z,57.52
2019-03-25T06:07:49.629Z,57.93
2019-03-25T06:10:17.588Z,57.54
2019-03-25T06:12:45.665Z,57.54
2019-03-25T06:15:13.845Z,56.33
2019-03-25T06:17:41.907Z,55.47
2019-03-25T06:20:09.772Z,55.02
2019-03-25T06:22:37.860Z,55.02
2019-03-25T06:25:06.019Z,54.46
2019-03-25T06:27:33.779Z,54.30
2019-03-25T06:30:04.284Z,52.57
2019-03-25T06:32:31.869Z,52.35
2019-03-25T06:34:59.841Z,53.07
2019-03-25T06:37:27.805Z,51.77
2019-03-25T06:39:55.872Z,51.87
2019-03-25T06:42:23.950Z,50.99
2019-03-25T06:44:51.921Z,50.87
2019-03-25T06:47:19.990Z,51.61
2019-03-25T06:49:48.059Z,49.96
2019-03-25T06:52:16.542Z,49.52
2019-03-25T06:54:44.213Z,48.95
2019-03-25T06:57:12.310Z,49.22
2019-03-25T06:59:40.240Z,49.42
2019-03-25T07:02:08.417Z,49.03
2019-03-25T07:04:36.380Z,48.59
2019-03-25T07:07:04.353Z,48.78
2019-03-25T07:09:32.423Z,48.94
2019-03-25T07:12:00.394Z,48.87
2019-03-25T07:14:28.358Z,48.47
2019-03-25T07:16:56.325Z,48.31
2019-03-25T07:19:24.317Z,48.19
2019-03-25T07:21:52.266Z,48.54
2019-03-25T07:24:20.334Z,48.00
2019-03-25T07:26:48.303Z,48.35
2019-03-25T07:29:16.277Z,48.54
2019-03-25T07:31:44.242Z,49.16
2019-03-25T07:34:12.210Z,48.35
2019-03-25T07:36:40.283Z,48.10
2019-03-25T07:39:08.555Z,48.20
2019-03-25T07:41:36.422Z,47.40
2019-03-25T07:44:04.494Z,45.87
2019-03-25T07:46:32.562Z,46.38
2019-03-25T07:49:00.562Z,46.86
2019-03-25T07:51:28.603Z,46.62
2019-03-25T07:53:57.093Z,43.04
2019-03-25T07:56:24.861Z,43.24
2019-03-25T07:58:52.826Z,42.97
2019-03-25T08:01:21.093Z,42.44
2019-03-25T08:03:48.853Z,42.12
2019-03-25T08:06:16.845Z,42.23
2019-03-25T08:08:44.702Z,42.76
2019-03-25T08:11:12.662Z,42.75
2019-03-25T08:13:40.740Z,41.98
2019-03-25T08:16:09.413Z,40.45
2019-03-25T08:18:37.388Z,39.55
2019-03-25T08:21:05.453Z,39.77
2019-03-25T08:23:33.418Z,40.00
2019-03-25T08:26:01.393Z,39.86
2019-03-25T08:28:29.459Z,40.75
2019-03-25T08:30:57.533Z,40.97
2019-03-25T08:33:25.396Z,39.98
2019-03-25T08:35:53.478Z,40.16
2019-03-25T08:38:21.541Z,40.41
2019-03-25T08:40:49.404Z,39.25
2019-03-25T08:43:17.374Z,38.63
2019-03-25T08:45:45.348Z,38.69
2019-03-25T08:48:13.310Z,38.19
2019-03-25T08:50:41.687Z,37.63
2019-03-25T08:53:11.194Z,37.20
2019-03-25T08:55:39.162Z,36.63
2019-03-25T08:58:12.032Z,37.13
2019-03-25T09:00:37.468Z,38.15
2019-03-25T09:03:05.220Z,37.28
2019-03-25T09:05:33.195Z,36.28
2019-03-25T09:08:01.054Z,36.44
2019-03-25T09:10:29.026Z,37.46
2019-03-25T09:12:57.095Z,37.91
2019-03-25T09:15:24.967Z,37.42
2019-03-25T09:17:52.872Z,37.16
2019-03-25T09:20:20.791Z,37.93
2019-03-25T09:22:48.769Z,38.11
2019-03-25T09:25:16.837Z,37.27
2019-03-25T09:27:44.698Z,37.01
2019-03-25T09:30:17.378Z,36.30
2019-03-25T09:32:45.175Z,36.88
2019-03-25T09:35:13.311Z,36.79
2019-03-25T09:37:41.386Z,36.70
2019-03-25T09:40:10.793Z,37.26
2019-03-25T09:42:38.758Z,36.71
2019-03-25T09:45:07.645Z,36.43
2019-03-25T09:47:37.832Z,35.61
2019-03-25T09:50:06.039Z,34.91
2019-03-25T09:52:38.635Z,34.01
2019-03-25T09:55:05.916Z,33.08
2019-03-25T09:57:33.539Z,32.14
2019-03-25T10:00:03.508Z,32.87
2019-03-25T10:02:32.439Z,33.01
2019-03-25T10:05:00.611Z,33.44
2019-03-25T10:07:29.299Z,33.86
2019-03-25T10:09:57.271Z,34.97
2019-03-25T10:12:25.241Z,35.04
2019-03-25T10:14:53.420Z,34.93
2019-03-25T10:17:22.196Z,34.91
2019-03-25T10:19:50.166Z,35.01
2019-03-25T10:22:18.141Z,34.80
2019-03-25T10:24:46.310Z,34.64
2019-03-25T10:27:14.889Z,34.70
2019-03-25T10:29:42.858Z,34.94
2019-03-25T10:32:10.942Z,35.09
2019-03-25T10:34:38.999Z,34.73
2019-03-25T10:37:07.070Z,34.85
2019-03-25T10:39:35.241Z,34.38
2019-03-25T10:42:03.212Z,34.37
2019-03-25T10:44:31.288Z,33.67
2019-03-25T10:46:59.251Z,34.14
2019-03-25T10:49:27.220Z,34.18
2019-03-25T10:51:55.188Z,33.79
2019-03-25T10:54:23.793Z,33.75
2019-03-25T10:56:51.639Z,33.00
2019-03-25T10:59:19.722Z,33.21
2019-03-25T11:01:48.292Z,33.24
2019-03-25T11:04:16.054Z,33.42
2019-03-25T11:06:44.843Z,32.89
2019-03-25T11:09:12.834Z,32.22
2019-03-25T11:11:40.876Z,32.90
2019-03-25T11:14:08.850Z,33.39
2019-03-25T11:16:38.768Z,32.77
2019-03-25T11:19:06.626Z,33.80
2019-03-25T11:21:34.707Z,34.46
2019-03-25T11:24:02.775Z,34.72
2019-03-25T11:26:30.744Z,33.71
2019-03-25T11:29:04.598Z,33.26
2019-03-25T11:31:28.631Z,33.06
2019-03-25T11:33:56.495Z,32.39
2019-03-25T11:36:24.580Z,33.01
2019-03-25T11:38:52.627Z,32.76
2019-03-25T11:41:21.530Z,33.14
2019-03-25T11:43:49.492Z,33.22
2019-03-25T11:46:17.660Z,33.55
2019-03-25T11:48:45.631Z,33.62
2019-03-25T11:51:13.602Z,34.37
2019-03-25T11:53:42.194Z,33.71
2019-03-25T11:56:10.064Z,33.06
2019-03-25T11:58:38.019Z,33.60
2019-03-25T12:01:06.397Z,33.14
2019-03-25T12:03:34.262Z,32.85
2019-03-25T12:06:02.234Z,31.95
2019-03-25T12:08:30.093Z,32.71
2019-03-25T12:10:58.170Z,31.82
2019-03-25T12:13:26.339Z,31.66
2019-03-25T12:15:54.202Z,31.43
2019-03-25T12:18:22.175Z,32.65
2019-03-25T12:20:50.141Z,31.63
2019-03-25T12:23:26.044Z,32.60
2019-03-25T12:25:47.821Z,31.95
2019-03-25T12:28:15.786Z,32.61
2019-03-25T12:30:44.891Z,32.24
2019-03-25T12:33:12.850Z,32.33
2019-03-25T12:35:40.922Z,32.20
2019-03-25T12:38:09.009Z,31.98
2019-03-25T12:40:36.870Z,31.88
2019-03-25T12:43:05.032Z,32.69
2019-03-25T12:45:33.111Z,33.66
2019-03-25T12:48:01.073Z,33.34
2019-03-25T12:50:29.039Z,32.51
2019-03-25T12:52:57.319Z,33.15
2019-03-25T12:55:24.978Z,33.85
2019-03-25T12:57:52.949Z,33.18
2019-03-25T13:00:36.075Z,33.12
2019-03-25T13:03:04.448Z,33.37
2019-03-25T13:05:35.385Z,33.04
2019-03-25T13:08:03.163Z,32.96
2019-03-25T13:13:37.798Z,32.70
2019-03-25T13:16:05.765Z,32.44
2019-03-25T13:18:33.631Z,33.17
2019-03-25T13:21:01.601Z,33.35
2019-03-25T13:23:29.564Z,33.50
2019-03-25T13:25:57.538Z,33.71
2019-03-25T13:28:25.504Z,33.68
2019-03-25T13:30:53.472Z,33.81
2019-03-25T13:33:21.650Z,33.80
2019-03-25T13:35:49.611Z,34.21
2019-03-25T13:38:17.580Z,33.58
2019-03-25T13:40:45.655Z,33.61
2019-03-25T13:43:14.235Z,32.84
2019-03-25T13:45:42.406Z,32.14
2019-03-25T13:48:10.273Z,32.14
2019-03-25T13:50:38.860Z,32.35
2019-03-25T13:53:06.928Z,31.85
2019-03-25T13:55:34.911Z,31.92
2019-03-25T13:58:03.378Z,32.13
2019-03-25T14:00:37.181Z,31.67
2019-03-25T14:03:04.841Z,31.92
2019-03-25T14:05:32.918Z,31.83
2019-03-25T14:08:00.990Z,31.73
2019-03-25T14:10:28.970Z,31.79
2019-03-25T14:12:56.921Z,31.79
2019-03-25T14:15:24.890Z,31.97
2019-03-25T14:17:52.883Z,32.23
2019-03-25T14:20:20.862Z,32.90
2019-03-25T14:22:48.906Z,33.25
2019-03-25T14:25:16.869Z,33.90
2019-03-25T14:27:44.957Z,34.32
2019-03-25T14:30:15.215Z,33.55
2019-03-25T14:32:43.135Z,33.92
2019-03-25T14:35:11.409Z,33.76
2019-03-25T14:37:39.270Z,33.93
2019-03-25T14:40:07.242Z,34.76
2019-03-25T14:42:35.212Z,35.51
2019-03-25T14:45:04.614Z,36.12
2019-03-25T14:47:32.372Z,36.13
2019-03-25T14:50:00.378Z,36.39
2019-03-25T14:52:28.823Z,36.62
2019-03-25T14:54:56.689Z,36.68
2019-03-25T14:57:24.760Z,36.65
2019-03-25T14:59:52.625Z,36.51
2019-03-25T15:02:21.102Z,36.99
2019-03-25T15:04:49.176Z,37.29
2019-03-25T15:07:17.149Z,37.41
2019-03-25T15:09:45.122Z,37.22
2019-03-25T15:12:13.082Z,36.24
2019-03-25T15:14:41.156Z,35.65
2019-03-25T15:17:09.137Z,35.48
2019-03-25T15:19:37.090Z,35.39
2019-03-25T15:22:05.067Z,35.07
2019-03-25T15:24:33.032Z,35.02
2019-03-25T15:27:00.998Z,34.87
2019-03-25T15:29:28.865Z,34.26
2019-03-25T15:31:56.833Z,34.57
2019-03-25T15:34:24.905Z,34.82
2019-03-25T15:36:53.080Z,35.91
2019-03-25T15:39:21.154Z,36.56
2019-03-25T15:41:49.324Z,37.98
2019-03-25T15:44:17.291Z,39.75
2019-03-25T15:46:55.290Z,40.33
2019-03-25T15:49:14.865Z,41.19
2019-03-25T15:51:43.973Z,42.43
2019-03-25T15:54:12.240Z,43.66
2019-03-25T15:56:40.101Z,43.87
2019-03-25T15:59:07.967Z,45.80
2019-03-25T16:01:36.341Z,47.45
2019-03-25T16:04:04.208Z,48.51
2019-03-25T16:06:33.007Z,49.09
2019-03-25T16:09:00.978Z,49.90
2019-03-25T16:11:28.942Z,49.96
2019-03-25T16:13:56.902Z,51.07
2019-03-25T16:16:25.076Z,51.28
2019-03-25T16:18:52.944Z,52.28
2019-03-25T16:21:20.922Z,52.91
2019-03-25T16:23:48.880Z,53.16
2019-03-25T16:26:17.260Z,53.60
2019-03-25T16:28:45.019Z,54.09
2019-03-25T16:31:13.000Z,54.75
2019-03-25T16:33:41.064Z,54.53
2019-03-25T16:36:09.360Z,54.58
2019-03-25T16:38:37.406Z,54.50
2019-03-25T16:41:05.279Z,54.70
2019-03-25T16:43:34.267Z,55.01
2019-03-25T16:46:02.339Z,55.35
2019-03-25T16:48:30.954Z,55.75
2019-03-25T16:50:58.993Z,55.20
2019-03-25T16:53:27.576Z,54.71
2019-03-25T16:55:55.443Z,54.89
2019-03-25T16:58:23.409Z,54.98
2019-03-25T17:00:51.786Z,54.82
2019-03-25T17:03:19.654Z,55.42
2019-03-25T17:05:47.620Z,56.27
2019-03-25T17:08:15.790Z,58.78
2019-03-25T17:10:43.869Z,60.60
2019-03-25T17:13:11.937Z,61.77
2019-03-25T17:15:39.907Z,58.90
2019-03-25T17:18:07.771Z,60.47
2019-03-25T17:20:35.946Z,61.23
2019-03-25T17:23:03.913Z,62.96
2019-03-25T17:25:32.603Z,62.02
2019-03-25T17:28:00.567Z,62.90
2019-03-25T17:30:28.428Z,63.30
2019-03-25T17:32:56.504Z,63.51
2019-03-25T17:35:24.573Z,63.96
2019-03-25T17:37:53.363Z,64.44
2019-03-25T17:40:21.395Z,61.94
2019-03-25T17:42:49.508Z,61.70
2019-03-25T17:45:17.579Z,60.93
2019-03-25T17:47:47.398Z,62.00
2019-03-25T17:50:16.189Z,61.40
2019-03-25T17:52:45.250Z,61.53
2019-03-25T17:55:14.986Z,62.30
2019-03-25T17:57:43.175Z,62.73
2019-03-25T18:00:11.429Z,62.30
2019-03-25T18:02:39.391Z,62.09
2019-03-25T18:05:08.085Z,62.39
2019-03-25T18:07:36.159Z,63.06
2019-03-25T18:10:06.986Z,63.43
2019-03-25T18:12:39.137Z,63.45
2019-03-25T18:15:08.285Z,63.62
2019-03-25T18:17:36.013Z,64.10
2019-03-25T18:20:06.032Z,64.82
2019-03-25T18:22:39.479Z,64.29
2019-03-25T18:25:05.860Z,63.77
2019-03-25T18:27:33.826Z,64.64
2019-03-25T18:30:01.895Z,65.49
2019-03-25T18:32:30.278Z,65.62
2019-03-25T18:34:58.453Z,65.53
2019-03-25T18:37:26.626Z,64.97
2019-03-25T18:39:54.592Z,66.53
2019-03-25T18:42:23.277Z,65.88
2019-03-25T18:44:51.142Z,65.40
2019-03-25T18:47:19.221Z,65.98
2019-03-25T18:49:47.285Z,66.28
2019-03-25T18:52:15.252Z,66.76
2019-03-25T18:54:45.683Z,66.19
2019-03-25T18:57:13.663Z,66.04
2019-03-25T18:59:41.825Z,67.12
2019-03-25T19:02:10.199Z,67.57
2019-03-25T19:04:37.860Z,68.04
2019-03-25T19:07:05.830Z,67.18
2019-03-25T19:09:33.702Z,66.56
2019-03-25T19:12:01.684Z,66.62
2019-03-25T19:14:30.472Z,67.18
2019-03-25T19:16:59.988Z,66.83
2019-03-25T19:19:27.634Z,66.67
2019-03-25T19:21:55.588Z,67.10
2019-03-25T19:24:23.722Z,66.46
2019-03-25T19:26:52.869Z,66.58
2019-03-25T19:29:21.645Z,66.40
2019-03-25T19:31:49.648Z,67.09
2019-03-25T19:34:17.479Z,67.78
2019-03-25T19:36:45.662Z,67.90
2019-03-25T19:39:13.726Z,67.26
2019-03-25T19:41:41.789Z,66.96
2019-03-25T19:44:09.758Z,67.13
2019-03-25T19:46:37.731Z,69.14
2019-03-25T19:49:05.728Z,68.73
2019-03-25T19:51:33.692Z,69.12
2019-03-25T19:54:02.148Z,68.97
2019-03-25T19:56:30.731Z,69.37
2019-03-25T19:59:01.876Z,70.82
2019-03-25T20:01:30.382Z,70.03
2019-03-25T20:03:58.327Z,71.35
2019-03-25T20:06:26.678Z,71.79
2019-03-25T20:08:54.571Z,71.06
2019-03-25T20:11:22.565Z,71.82
2019-03-25T20:13:50.607Z,70.67
2019-03-25T20:16:18.682Z,71.97
2019-03-25T20:18:46.659Z,72.44
2019-03-25T20:21:14.509Z,72.82
2019-03-25T20:23:42.576Z,72.30
2019-03-25T20:26:10.751Z,72.55
2019-03-25T20:28:38.625Z,72.58
2019-03-25T20:31:06.633Z,72.45
2019-03-25T20:33:34.763Z,72.65
2019-03-25T20:36:02.757Z,73.39
2019-03-25T20:38:30.944Z,73.56
2019-03-25T20:40:58.773Z,72.99
2019-03-25T20:43:26.951Z,72.77
2019-03-25T20:45:54.950Z,74.61
2019-03-25T20:48:22.882Z,74.61
2019-03-25T20:50:51.018Z,74.53
2019-03-25T20:53:19.666Z,75.17
2019-03-25T20:55:47.307Z,74.86
2019-03-25T20:58:15.340Z,76.47
2019-03-25T21:00:45.374Z,76.47
2019-03-25T21:03:13.358Z,76.81
2019-03-25T21:05:41.595Z,76.81
2019-03-25T21:08:12.138Z,76.94
2019-03-25T21:10:40.225Z,76.45
2019-03-25T21:13:08.273Z,76.73
2019-03-25T21:15:36.281Z,76.32
2019-03-25T21:18:04.554Z,76.58
2019-03-25T21:20:32.538Z,76.07
2019-03-25T21:23:00.741Z,76.07
2019-03-25T21:25:28.856Z,76.60
2019-03-25T21:27:56.930Z,77.15
2019-03-25T21:30:25.011Z,76.52
2019-03-25T21:32:58.666Z,76.44
2019-03-25T21:35:23.289Z,76.12
2019-03-25T21:37:51.568Z,76.12
2019-03-25T21:40:19.662Z,75.76
2019-03-25T21:42:47.631Z,75.12
2019-03-25T21:45:15.616Z,75.12
2019-03-25T21:47:43.940Z,75.77
2019-03-25T21:50:12.458Z,75.69
2019-03-25T21:52:40.818Z,74.86
2019-03-25T21:55:08.810Z,74.86
2019-03-25T21:57:36.800Z,74.53
2019-03-25T22:00:05.881Z,75.01
2019-03-25T22:02:33.921Z,74.83
2019-03-25T22:05:01.985Z,75.02
2019-03-25T22:07:30.875Z,74.95
2019-03-25T22:09:58.848Z,74.81
2019-03-25T22:12:26.812Z,74.73
2019-03-25T22:14:54.884Z,74.73
2019-03-25T22:17:22.646Z,74.80
2019-03-25T22:19:50.620Z,74.51
2019-03-25T22:22:18.593Z,74.90
2019-03-25T22:24:46.769Z,74.55
2019-03-25T22:27:14.726Z,74.57
2019-03-25T22:29:42.695Z,74.22
2019-03-25T22:32:10.867Z,74.54
2019-03-25T22:34:38.940Z,74.25
2019-03-25T22:37:07.009Z,74.36
2019-03-25T22:39:34.977Z,74.64
2019-03-25T22:42:02.950Z,74.65
2019-03-25T22:44:31.324Z,74.60
2019-03-25T22:46:59.294Z,74.51
2019-03-25T22:49:27.159Z,74.52
2019-03-25T22:51:55.123Z,74.22
2019-03-25T22:54:23.810Z,74.41
2019-03-25T22:56:51.682Z,74.61
2019-03-25T22:59:19.752Z,74.62
2019-03-25T23:01:48.435Z,74.89
2019-03-25T23:04:16.712Z,74.24
2019-03-25T23:06:44.784Z,74.81
2019-03-25T23:09:13.470Z,75.07
2019-03-25T23:11:41.434Z,74.30
2019-03-25T23:14:09.405Z,74.22
2019-03-25T23:16:37.373Z,74.48
2019-03-25T23:19:05.348Z,75.08
2019-03-25T23:21:33.313Z,75.11
2019-03-25T23:24:01.383Z,75.43
2019-03-25T23:26:29.661Z,75.47
2019-03-25T23:28:57.421Z,75.54
2019-03-25T23:31:25.389Z,75.82
2019-03-25T23:33:53.358Z,76.11
2019-03-25T23:36:21.535Z,75.93
2019-03-25T23:38:49.707Z,76.25
2019-03-25T23:41:17.672Z,75.81
2019-03-25T23:43:45.643Z,76.08
2019-03-25T23:46:13.615Z,76.62
2019-03-25T23:48:41.580Z,76.14
2019-03-25T23:51:09.748Z,76.78
2019-03-25T23:53:38.231Z,76.79
2019-03-25T23:56:06.103Z,76.55
2019-03-25T23:58:34.173Z,76.75
